createdAt,value
2018-11-07T00:00:05.804Z,24.90
2018-11-07T00:02:34.931Z,24.80
2018-11-07T00:05:04.043Z,24.80
2018-11-07T00:07:33.140Z,24.80
2018-11-07T00:10:08.422Z,24.80
2018-11-07T00:12:37.796Z,24.80
2018-11-07T00:15:09.853Z,24.80
2018-11-07T00:17:38.879Z,24.80
2018-11-07T00:20:09.272Z,24.80
2018-11-07T00:22:38.489Z,24.90
2018-11-07T00:25:08.504Z,24.90
2018-11-07T00:27:37.583Z,24.90
2018-11-07T00:30:07.141Z,25.00
2018-11-07T00:32:36.179Z,25.00
2018-11-07T00:35:05.953Z,25.00
2018-11-07T00:37:34.920Z,25.00
2018-11-07T00:40:03.944Z,25.00
2018-11-07T00:42:32.922Z,25.00
2018-11-07T00:45:01.928Z,25.00
2018-11-07T00:47:30.934Z,25.00
2018-11-07T00:50:00.053Z,24.90
2018-11-07T00:52:30.057Z,24.90
2018-11-07T00:54:59.056Z,25.10
2018-11-07T00:57:28.144Z,25.20
2018-11-07T00:59:57.152Z,25.10
2018-11-07T01:02:26.235Z,25.10
2018-11-07T01:04:55.236Z,25.10
2018-11-07T01:07:24.259Z,25.10
2018-11-07T01:09:53.264Z,25.10
2018-11-07T01:12:22.255Z,25.20
2018-11-07T01:14:51.298Z,25.10
2018-11-07T01:17:20.373Z,25.00
2018-11-07T01:19:49.390Z,24.90
2018-11-07T01:22:18.423Z,24.90
2018-11-07T01:24:47.451Z,24.80
2018-11-07T01:27:16.469Z,24.90
2018-11-07T01:29:45.559Z,24.80
2018-11-07T01:32:14.574Z,24.90
2018-11-07T01:34:43.633Z,24.50
2018-11-07T01:37:12.625Z,24.30
2018-11-07T01:39:41.734Z,24.10
2018-11-07T01:42:10.840Z,24.00
2018-11-07T01:44:39.759Z,23.90
2018-11-07T01:47:08.952Z,23.80
2018-11-07T01:49:37.997Z,23.80
2018-11-07T01:52:07.046Z,23.70
2018-11-07T01:54:36.136Z,23.70
2018-11-07T01:57:05.594Z,23.60
2018-11-07T01:59:34.639Z,23.60
2018-11-07T02:02:03.713Z,23.60
2018-11-07T02:04:32.720Z,23.50
2018-11-07T02:07:01.722Z,23.50
2018-11-07T02:09:30.788Z,23.50
2018-11-07T02:11:59.809Z,23.40
2018-11-07T02:14:28.779Z,23.40
2018-11-07T02:16:57.811Z,23.30
2018-11-07T02:19:26.884Z,23.40
2018-11-07T02:21:55.900Z,23.30
2018-11-07T02:24:24.970Z,23.30
2018-11-07T02:26:53.984Z,23.30
2018-11-07T02:29:23.013Z,23.30
2018-11-07T02:31:52.040Z,23.30
2018-11-07T02:34:21.046Z,23.30
2018-11-07T02:36:50.051Z,23.30
2018-11-07T02:39:19.089Z,23.30
2018-11-07T02:41:48.216Z,23.30
2018-11-07T02:44:17.111Z,23.20
2018-11-07T02:46:46.264Z,23.20
2018-11-07T02:49:15.257Z,23.20
2018-11-07T02:51:44.269Z,23.20
2018-11-07T02:54:13.267Z,23.20
2018-11-07T02:56:42.283Z,23.20
2018-11-07T02:59:11.279Z,23.20
2018-11-07T03:01:40.329Z,23.20
2018-11-07T03:04:09.455Z,23.20
2018-11-07T03:06:38.562Z,23.20
2018-11-07T03:09:08.941Z,23.10
2018-11-07T03:11:37.972Z,23.10
2018-11-07T03:14:07.475Z,23.10
2018-11-07T03:16:36.688Z,23.10
2018-11-07T03:19:06.092Z,23.10
2018-11-07T03:21:35.433Z,23.10
2018-11-07T03:24:04.471Z,23.10
2018-11-07T03:26:33.529Z,23.10
2018-11-07T03:29:02.571Z,23.10
2018-11-07T03:31:31.608Z,23.10
2018-11-07T03:34:00.602Z,23.10
2018-11-07T03:36:29.608Z,23.10
2018-11-07T03:38:58.607Z,23.10
2018-11-07T03:41:27.840Z,23.00
2018-11-07T03:43:56.901Z,23.00
2018-11-07T03:46:25.917Z,23.00
2018-11-07T03:48:54.917Z,23.00
2018-11-07T03:51:23.923Z,23.00
2018-11-07T03:53:52.981Z,23.00
2018-11-07T03:56:22.005Z,23.00
2018-11-07T03:58:50.999Z,23.00
2018-11-07T04:01:20.050Z,23.00
2018-11-07T04:03:49.099Z,23.00
2018-11-07T04:06:18.087Z,23.00
2018-11-07T04:08:47.149Z,23.00
2018-11-07T04:11:16.177Z,23.00
2018-11-07T04:13:45.194Z,23.00
2018-11-07T04:16:14.224Z,23.00
2018-11-07T04:18:43.364Z,23.00
2018-11-07T04:21:12.396Z,22.90
2018-11-07T04:23:41.418Z,22.90
2018-11-07T04:26:10.412Z,23.00
2018-11-07T04:28:39.412Z,22.90
2018-11-07T04:31:08.410Z,22.90
2018-11-07T04:33:37.399Z,22.90
2018-11-07T04:36:06.397Z,22.90
2018-11-07T04:38:35.459Z,22.90
2018-11-07T04:41:04.497Z,22.90
2018-11-07T04:43:33.488Z,22.90
2018-11-07T04:46:02.488Z,22.90
2018-11-07T04:48:31.487Z,22.90
2018-11-07T04:51:00.534Z,22.90
2018-11-07T04:53:29.524Z,22.90
2018-11-07T04:55:58.551Z,22.90
2018-11-07T04:58:27.641Z,22.90
2018-11-07T05:00:56.636Z,22.90
2018-11-07T05:03:25.664Z,22.90
2018-11-07T05:05:54.670Z,22.90
2018-11-07T05:08:23.732Z,22.90
2018-11-07T05:10:52.678Z,22.90
2018-11-07T05:13:21.784Z,22.90
2018-11-07T05:15:50.786Z,22.90
2018-11-07T05:18:20.220Z,22.90
2018-11-07T05:20:49.222Z,22.80
2018-11-07T05:23:18.219Z,22.90
2018-11-07T05:25:47.267Z,22.80
2018-11-07T05:28:16.281Z,22.90
2018-11-07T05:30:45.291Z,22.80
2018-11-07T05:33:14.349Z,22.80
2018-11-07T05:35:43.369Z,22.80
2018-11-07T05:38:12.377Z,22.80
2018-11-07T05:40:42.096Z,22.80
2018-11-07T05:43:11.092Z,22.80
2018-11-07T05:45:40.111Z,22.80
2018-11-07T05:48:09.235Z,22.80
2018-11-07T05:50:38.256Z,22.80
2018-11-07T05:53:07.229Z,22.80
2018-11-07T05:55:36.220Z,22.80
2018-11-07T05:58:05.587Z,22.80
2018-11-07T06:00:34.580Z,22.80
2018-11-07T06:03:03.692Z,22.80
2018-11-07T06:05:32.700Z,22.80
2018-11-07T06:08:01.737Z,22.80
2018-11-07T06:10:30.805Z,22.80
2018-11-07T06:12:59.878Z,22.80
2018-11-07T06:15:28.969Z,22.80
2018-11-07T06:17:58.000Z,22.80
2018-11-07T06:20:27.031Z,22.80
2018-11-07T06:22:56.072Z,22.80
2018-11-07T06:25:25.061Z,22.80
2018-11-07T06:27:54.112Z,22.80
2018-11-07T06:30:23.128Z,22.80
2018-11-07T06:32:52.141Z,22.80
2018-11-07T06:35:21.184Z,22.80
2018-11-07T06:37:50.196Z,22.80
2018-11-07T06:40:19.180Z,22.80
2018-11-07T06:42:48.183Z,22.70
2018-11-07T06:45:17.184Z,22.70
2018-11-07T06:47:46.175Z,22.80
2018-11-07T06:50:15.800Z,22.80
2018-11-07T06:52:44.817Z,22.70
2018-11-07T06:55:14.010Z,22.80
2018-11-07T06:57:43.071Z,22.70
2018-11-07T07:00:15.347Z,22.80
2018-11-07T07:02:45.379Z,22.80
2018-11-07T07:05:14.477Z,22.80
2018-11-07T07:07:43.553Z,22.80
2018-11-07T07:10:14.170Z,22.80
2018-11-07T07:12:43.156Z,22.80
2018-11-07T07:15:13.632Z,22.80
2018-11-07T07:17:42.751Z,22.70
2018-11-07T07:20:14.303Z,22.80
2018-11-07T07:22:44.014Z,22.70
2018-11-07T07:25:13.584Z,22.70
2018-11-07T07:27:43.411Z,22.80
2018-11-07T07:30:13.755Z,22.70
2018-11-07T07:32:43.637Z,22.70
2018-11-07T07:35:13.149Z,22.80
2018-11-07T07:37:42.165Z,22.80
2018-11-07T07:40:12.520Z,22.80
2018-11-07T07:42:42.373Z,22.80
2018-11-07T07:45:13.444Z,22.70
2018-11-07T07:47:43.020Z,22.80
2018-11-07T07:50:14.187Z,22.80
2018-11-07T07:52:43.564Z,22.80
2018-11-07T07:55:12.707Z,22.80
2018-11-07T07:57:42.281Z,22.70
2018-11-07T08:00:13.021Z,22.80
2018-11-07T08:02:44.167Z,22.80
2018-11-07T08:05:13.163Z,22.80
2018-11-07T08:07:42.396Z,22.80
2018-11-07T08:10:14.425Z,22.80
2018-11-07T08:12:43.907Z,22.80
2018-11-07T08:15:13.301Z,22.90
2018-11-07T08:17:43.057Z,22.90
2018-11-07T08:20:13.106Z,22.90
2018-11-07T08:22:42.855Z,22.90
2018-11-07T08:25:11.908Z,23.00
2018-11-07T08:27:41.056Z,23.10
2018-11-07T08:31:04.005Z,23.20
2018-11-07T08:33:32.890Z,23.20
2018-11-07T08:36:01.916Z,23.20
2018-11-07T08:38:30.912Z,23.30
2018-11-07T08:40:59.887Z,23.30
2018-11-07T08:43:28.904Z,23.30
2018-11-07T08:45:57.900Z,23.40
2018-11-07T08:48:26.915Z,23.40
2018-11-07T08:50:55.917Z,23.40
2018-11-07T08:53:24.928Z,23.40
2018-11-07T08:55:53.907Z,23.40
2018-11-07T08:58:22.924Z,23.50
2018-11-07T09:00:51.916Z,23.50
2018-11-07T09:03:20.936Z,23.50
2018-11-07T09:05:49.919Z,23.60
2018-11-07T09:08:18.932Z,23.60
2018-11-07T09:10:47.925Z,23.60
2018-11-07T09:13:16.924Z,23.60
2018-11-07T09:15:45.915Z,23.60
2018-11-07T09:18:14.907Z,23.70
2018-11-07T09:20:43.921Z,23.70
2018-11-07T09:23:12.916Z,23.80
2018-11-07T09:25:41.908Z,23.80
2018-11-07T09:28:10.896Z,23.80
2018-11-07T09:30:39.892Z,23.80
2018-11-07T09:33:08.880Z,23.80
2018-11-07T09:35:37.879Z,23.80
2018-11-07T09:38:06.874Z,23.90
2018-11-07T09:40:36.017Z,23.90
2018-11-07T09:43:05.041Z,23.90
2018-11-07T09:45:34.040Z,23.90
2018-11-07T09:48:03.079Z,23.90
2018-11-07T09:50:32.044Z,23.90
2018-11-07T09:53:01.042Z,24.00
2018-11-07T09:55:30.040Z,24.00
2018-11-07T09:57:59.051Z,24.00
2018-11-07T10:00:28.066Z,23.90
2018-11-07T10:02:57.039Z,23.90
2018-11-07T10:05:26.100Z,23.90
2018-11-07T10:07:55.028Z,23.90
2018-11-07T10:10:24.024Z,23.90
2018-11-07T10:12:53.013Z,23.90
2018-11-07T10:15:22.047Z,24.00
2018-11-07T10:17:51.079Z,24.00
2018-11-07T10:20:21.586Z,24.00
2018-11-07T10:22:50.745Z,24.00
2018-11-07T10:25:19.994Z,24.00
2018-11-07T10:27:49.210Z,24.00
2018-11-07T10:30:19.205Z,24.00
2018-11-07T10:32:49.158Z,24.00
2018-11-07T10:35:18.167Z,24.00
2018-11-07T10:37:47.186Z,24.00
2018-11-07T10:40:17.669Z,24.00
2018-11-07T10:42:47.278Z,24.00
2018-11-07T10:45:16.287Z,24.00
2018-11-07T10:47:46.183Z,24.00
2018-11-07T10:50:16.208Z,24.00
2018-11-07T10:52:45.694Z,24.00
2018-11-07T10:55:15.531Z,24.00
2018-11-07T10:57:44.569Z,24.00
2018-11-07T11:00:19.971Z,24.00
2018-11-07T11:02:54.291Z,24.00
2018-11-07T11:05:23.368Z,24.00
2018-11-07T11:07:52.375Z,24.00
2018-11-07T11:10:21.720Z,24.00
2018-11-07T11:12:50.707Z,23.90
2018-11-07T11:15:19.736Z,24.00
2018-11-07T11:17:48.720Z,23.90
2018-11-07T11:20:17.691Z,23.90
2018-11-07T11:22:46.700Z,23.90
2018-11-07T11:25:15.660Z,23.90
2018-11-07T11:27:44.656Z,23.90
2018-11-07T11:30:13.644Z,23.90
2018-11-07T11:32:43.875Z,23.90
2018-11-07T11:35:13.058Z,23.90
2018-11-07T11:37:41.864Z,23.90
2018-11-07T11:40:12.327Z,23.90
2018-11-07T11:42:42.064Z,23.80
2018-11-07T11:45:12.784Z,23.80
2018-11-07T11:47:42.395Z,23.80
2018-11-07T11:50:13.641Z,23.80
2018-11-07T11:52:43.666Z,23.80
2018-11-07T11:55:12.687Z,23.80
2018-11-07T11:57:45.209Z,23.80
2018-11-07T12:00:16.063Z,23.80
2018-11-07T12:02:45.485Z,23.80
2018-11-07T12:05:15.376Z,23.80
2018-11-07T12:07:44.379Z,23.70
2018-11-07T12:10:25.100Z,23.70
2018-11-07T12:12:57.206Z,23.70
2018-11-07T12:15:27.306Z,23.70
2018-11-07T12:17:56.613Z,23.70
2018-11-07T12:20:25.624Z,23.70
2018-11-07T12:22:54.609Z,23.70
2018-11-07T12:25:23.630Z,23.70
2018-11-07T12:27:52.625Z,23.70
2018-11-07T12:30:22.922Z,23.70
2018-11-07T12:32:53.244Z,23.70
2018-11-07T12:35:22.576Z,23.60
2018-11-07T12:37:51.571Z,23.60
2018-11-07T12:40:20.823Z,23.60
2018-11-07T12:42:49.845Z,23.60
2018-11-07T12:45:18.815Z,23.60
2018-11-07T12:47:47.809Z,23.50
2018-11-07T12:50:18.418Z,23.60
2018-11-07T12:52:47.646Z,23.50
2018-11-07T12:55:17.355Z,23.50
2018-11-07T12:57:46.370Z,23.50
2018-11-07T13:00:19.017Z,23.50
2018-11-07T13:02:48.015Z,23.50
2018-11-07T13:05:18.070Z,23.50
2018-11-07T13:07:47.833Z,23.50
2018-11-07T13:10:18.071Z,23.50
2018-11-07T13:12:47.679Z,23.50
2018-11-07T13:15:17.177Z,23.50
2018-11-07T13:17:46.900Z,23.50
2018-11-07T13:20:17.930Z,23.50
2018-11-07T13:22:48.159Z,23.50
2018-11-07T13:25:17.659Z,23.50
2018-11-07T13:27:46.659Z,23.50
2018-11-07T13:30:16.967Z,23.50
2018-11-07T13:32:45.971Z,23.50
2018-11-07T13:35:16.418Z,23.50
2018-11-07T13:37:46.330Z,23.50
2018-11-07T13:40:16.963Z,23.50
2018-11-07T13:42:45.944Z,23.40
2018-11-07T13:45:16.195Z,23.50
2018-11-07T13:47:46.266Z,23.40
2018-11-07T13:50:15.966Z,23.40
2018-11-07T13:52:44.955Z,23.40
2018-11-07T13:55:14.819Z,23.40
2018-11-07T13:57:44.040Z,23.40
2018-11-07T14:00:16.076Z,23.40
2018-11-07T14:02:45.471Z,23.40
2018-11-07T14:05:14.687Z,23.40
2018-11-07T14:07:43.618Z,23.30
2018-11-07T14:10:18.533Z,23.30
2018-11-07T14:12:47.528Z,23.40
2018-11-07T14:15:16.592Z,23.30
2018-11-07T14:17:45.811Z,23.30
2018-11-07T14:20:14.886Z,23.30
2018-11-07T14:22:43.864Z,23.30
2018-11-07T14:25:13.283Z,23.30
2018-11-07T14:27:42.441Z,23.30
2018-11-07T14:30:12.843Z,23.30
2018-11-07T14:32:45.503Z,23.30
2018-11-07T14:35:14.532Z,23.30
2018-11-07T14:37:43.519Z,23.30
2018-11-07T14:40:12.545Z,23.30
2018-11-07T14:42:41.532Z,23.30
2018-11-07T14:45:11.711Z,23.30
2018-11-07T14:47:41.329Z,23.30
2018-11-07T14:50:11.219Z,23.30
2018-11-07T14:52:40.195Z,23.30
2018-11-07T14:55:10.108Z,23.30
2018-11-07T14:57:39.147Z,23.30
2018-11-07T15:00:09.712Z,23.20
2018-11-07T15:02:39.287Z,23.20
2018-11-07T15:05:09.378Z,23.20
2018-11-07T15:07:38.599Z,23.20
2018-11-07T15:10:08.694Z,23.20
2018-11-07T15:12:38.012Z,23.20
2018-11-07T15:15:09.959Z,23.20
2018-11-07T15:17:39.045Z,23.20
2018-11-07T15:20:09.441Z,23.10
2018-11-07T15:22:38.467Z,23.20
2018-11-07T15:25:08.470Z,23.20
2018-11-07T15:27:37.491Z,23.20
2018-11-07T15:30:08.151Z,23.10
2018-11-07T15:32:37.195Z,23.10
2018-11-07T15:35:06.548Z,23.10
2018-11-07T15:37:35.756Z,23.10
2018-11-07T15:40:06.130Z,23.10
2018-11-07T15:42:35.200Z,23.10
2018-11-07T15:45:04.256Z,23.10
2018-11-07T15:47:33.293Z,23.10
2018-11-07T15:50:07.544Z,23.10
2018-11-07T15:52:36.540Z,23.10
2018-11-07T15:55:06.077Z,23.10
2018-11-07T15:57:35.056Z,23.10
2018-11-07T16:00:04.565Z,23.10
2018-11-07T16:02:33.516Z,23.10
2018-11-07T16:05:02.486Z,23.10
2018-11-07T16:07:31.468Z,23.10
2018-11-07T16:10:00.504Z,23.10
2018-11-07T16:12:29.472Z,23.10
2018-11-07T16:14:58.556Z,23.10
2018-11-07T16:17:27.544Z,23.10
2018-11-07T16:19:56.899Z,23.20
2018-11-07T16:22:25.871Z,23.20
2018-11-07T16:24:54.961Z,23.20
2018-11-07T16:27:23.945Z,23.20
2018-11-07T16:29:53.063Z,23.20
2018-11-07T16:32:22.020Z,23.20
2018-11-07T16:34:51.119Z,23.20
2018-11-07T16:37:20.098Z,23.20
2018-11-07T16:39:49.087Z,23.20
2018-11-07T16:42:18.107Z,23.20
2018-11-07T16:44:47.106Z,23.20
2018-11-07T16:47:16.136Z,23.20
2018-11-07T16:49:45.119Z,23.20
2018-11-07T16:52:14.191Z,23.20
2018-11-07T16:54:43.188Z,23.20
2018-11-07T16:57:12.167Z,23.10
2018-11-07T16:59:41.203Z,23.10
2018-11-07T17:02:10.185Z,23.10
2018-11-07T17:04:39.266Z,23.10
2018-11-07T17:07:08.330Z,23.10
2018-11-07T17:09:37.220Z,23.10
2018-11-07T17:12:06.547Z,23.10
2018-11-07T17:14:35.551Z,23.10
2018-11-07T17:17:04.599Z,23.10
2018-11-07T17:19:33.557Z,23.10
2018-11-07T17:22:02.580Z,23.10
2018-11-07T17:24:31.677Z,23.10
2018-11-07T17:27:00.564Z,23.10
2018-11-07T17:29:29.528Z,23.10
2018-11-07T17:31:58.531Z,23.10
2018-11-07T17:34:27.478Z,23.10
2018-11-07T17:36:56.460Z,23.10
2018-11-07T17:39:25.427Z,23.10
2018-11-07T17:41:55.465Z,23.10
2018-11-07T17:44:24.430Z,23.10
2018-11-07T17:46:53.594Z,23.10
2018-11-07T17:49:22.566Z,23.10
2018-11-07T17:51:51.575Z,23.10
2018-11-07T17:54:20.557Z,23.10
2018-11-07T17:56:49.591Z,23.10
2018-11-07T17:59:18.570Z,23.10
2018-11-07T18:01:47.615Z,23.10
2018-11-07T18:04:16.591Z,23.10
2018-11-07T18:06:45.616Z,23.10
2018-11-07T18:09:14.701Z,23.10
2018-11-07T18:11:43.794Z,23.10
2018-11-07T18:14:12.778Z,23.10
2018-11-07T18:16:41.756Z,23.10
2018-11-07T18:19:10.804Z,23.10
2018-11-07T18:21:39.735Z,23.10
2018-11-07T18:24:08.761Z,23.10
2018-11-07T18:26:37.770Z,23.10
2018-11-07T18:29:07.222Z,23.00
2018-11-07T18:31:36.655Z,23.10
2018-11-07T18:34:05.848Z,23.10
2018-11-07T18:36:34.901Z,23.10
2018-11-07T18:39:06.601Z,23.10
2018-11-07T18:41:35.598Z,23.10
2018-11-07T18:44:04.685Z,23.00
2018-11-07T18:46:33.618Z,23.10
2018-11-07T18:49:02.767Z,23.00
2018-11-07T18:51:32.123Z,23.10
2018-11-07T18:54:01.188Z,23.00
2018-11-07T18:56:30.343Z,23.00
2018-11-07T18:58:59.559Z,23.10
2018-11-07T19:01:28.412Z,23.00
2018-11-07T19:03:57.439Z,23.10
2018-11-07T19:06:26.502Z,23.00
2018-11-07T19:08:55.472Z,23.00
2018-11-07T19:11:24.463Z,23.10
2018-11-07T19:13:53.519Z,23.10
2018-11-07T19:16:22.508Z,23.00
2018-11-07T19:18:51.524Z,23.00
2018-11-07T19:21:20.528Z,23.00
2018-11-07T19:23:49.566Z,23.00
2018-11-07T19:26:18.676Z,23.00
2018-11-07T19:28:47.651Z,23.00
2018-11-07T19:31:16.687Z,23.00
2018-11-07T19:33:45.836Z,23.00
2018-11-07T19:36:15.021Z,23.00
2018-11-07T19:38:44.092Z,23.00
2018-11-07T19:41:13.184Z,23.10
2018-11-07T19:43:42.168Z,23.00
2018-11-07T19:46:11.163Z,23.00
2018-11-07T19:48:40.510Z,23.00
2018-11-07T19:51:09.711Z,23.00
2018-11-07T19:53:38.710Z,23.10
2018-11-07T19:56:07.679Z,23.00
2018-11-07T19:58:36.692Z,23.00
2018-11-07T20:01:05.916Z,23.00
2018-11-07T20:03:34.919Z,23.10
2018-11-07T20:06:04.031Z,23.10
2018-11-07T20:08:33.027Z,23.00
2018-11-07T20:11:02.136Z,23.10
2018-11-07T20:13:31.244Z,23.00
2018-11-07T20:16:00.240Z,23.00
2018-11-07T20:18:29.269Z,23.00
2018-11-07T20:20:58.315Z,23.00
2018-11-07T20:23:28.085Z,23.00
2018-11-07T20:25:57.124Z,23.00
2018-11-07T20:28:26.132Z,23.00
2018-11-07T20:30:55.143Z,23.00
2018-11-07T20:33:24.153Z,23.00
2018-11-07T20:35:53.298Z,23.00
2018-11-07T20:38:22.164Z,23.00
2018-11-07T20:40:51.153Z,23.00
2018-11-07T20:43:20.271Z,23.00
2018-11-07T20:45:49.257Z,23.00
2018-11-07T20:48:18.251Z,23.00
2018-11-07T20:50:47.236Z,23.00
2018-11-07T20:53:16.255Z,23.00
2018-11-07T20:55:45.338Z,23.00
2018-11-07T20:58:14.343Z,23.00
2018-11-07T21:00:43.396Z,23.00
2018-11-07T21:03:12.385Z,23.00
2018-11-07T21:05:41.412Z,23.00
2018-11-07T21:08:10.496Z,23.00
2018-11-07T21:10:40.408Z,23.00
2018-11-07T21:13:09.404Z,23.00
2018-11-07T21:15:38.496Z,23.00
2018-11-07T21:18:07.477Z,23.00
2018-11-07T21:20:36.479Z,23.00
2018-11-07T21:23:05.599Z,23.00
2018-11-07T21:25:34.599Z,23.00
2018-11-07T21:28:03.608Z,22.90
2018-11-07T21:30:32.598Z,22.90
2018-11-07T21:33:01.788Z,23.00
2018-11-07T21:35:30.861Z,22.90
2018-11-07T21:37:59.836Z,22.90
2018-11-07T21:40:28.935Z,22.90
2018-11-07T21:42:57.967Z,22.90
2018-11-07T21:45:27.028Z,22.90
2018-11-07T21:47:56.099Z,22.90
2018-11-07T21:50:25.096Z,22.90
2018-11-07T21:52:54.202Z,22.90
2018-11-07T21:55:23.186Z,22.90
2018-11-07T21:57:52.300Z,22.90
2018-11-07T22:00:21.291Z,22.90
2018-11-07T22:02:50.344Z,22.90
2018-11-07T22:05:19.379Z,22.90
2018-11-07T22:07:48.346Z,22.90
2018-11-07T22:10:18.254Z,22.90
2018-11-07T22:12:47.250Z,22.90
2018-11-07T22:15:16.215Z,22.90
2018-11-07T22:17:45.215Z,22.90
2018-11-07T22:20:17.691Z,22.90
2018-11-07T22:22:46.688Z,22.90
2018-11-07T22:25:15.673Z,22.80
2018-11-07T22:27:44.708Z,22.90
2018-11-07T22:30:14.912Z,22.90
2018-11-07T22:32:43.913Z,22.80
2018-11-07T22:35:14.999Z,22.90
2018-11-07T22:37:44.647Z,22.80
2018-11-07T22:40:14.926Z,22.80
2018-11-07T22:42:44.013Z,22.80
2018-11-07T22:45:13.476Z,22.80
2018-11-07T22:47:42.499Z,22.80
2018-11-07T22:50:12.737Z,22.80
2018-11-07T22:52:42.775Z,22.80
2018-11-07T22:55:11.772Z,22.80
2018-11-07T22:57:40.780Z,22.80
2018-11-07T23:00:18.459Z,22.80
2018-11-07T23:02:48.176Z,22.80
2018-11-07T23:05:17.669Z,22.80
2018-11-07T23:07:46.800Z,22.80
2018-11-07T23:10:15.788Z,22.80
2018-11-07T23:12:44.812Z,22.80
2018-11-07T23:15:18.912Z,22.80
2018-11-07T23:17:47.940Z,22.80
2018-11-07T23:20:16.920Z,22.80
2018-11-07T23:22:45.920Z,22.80
2018-11-07T23:25:14.928Z,22.80
2018-11-07T23:27:44.011Z,22.80
2018-11-07T23:30:12.992Z,22.80
2018-11-07T23:32:42.008Z,22.80
2018-11-07T23:35:11.028Z,22.80
2018-11-07T23:37:40.008Z,22.80
2018-11-07T23:40:09.035Z,22.80
2018-11-07T23:42:38.023Z,22.80
2018-11-07T23:45:10.782Z,22.80
2018-11-07T23:47:39.757Z,22.80
2018-11-07T23:50:09.264Z,22.80
2018-11-07T23:52:43.589Z,22.80
2018-11-07T23:55:12.581Z,22.80
2018-11-07T23:57:41.632Z,22.80
